createdAt,value
2023-03-16T00:00:46.712Z,12.73
2023-03-16T00:03:19.193Z,16.73
2023-03-16T00:05:47.525Z,12.13
2023-03-16T00:08:16.121Z,13.47
2023-03-16T00:10:46.914Z,13.83
2023-03-16T00:13:15.376Z,14.37
2023-03-16T00:15:43.330Z,14.00
2023-03-16T00:18:10.976Z,12.63
2023-03-16T00:20:39.999Z,13.60
2023-03-16T00:23:07.651Z,12.90
2023-03-16T00:25:35.299Z,15.03
2023-03-16T00:28:03.689Z,13.93
2023-03-16T00:30:31.461Z,13.53
2023-03-16T00:32:59.305Z,16.10
2023-03-16T00:35:27.011Z,12.73
2023-03-16T00:37:57.422Z,11.00
2023-03-16T00:40:25.375Z,12.97
2023-03-16T00:42:55.064Z,12.90
2023-03-16T00:45:23.415Z,11.03
2023-03-16T00:47:54.165Z,16.50
2023-03-16T00:50:22.607Z,12.40
2023-03-16T00:52:53.629Z,13.27
2023-03-16T00:55:22.829Z,13.17
2023-03-16T00:57:50.454Z,14.17
2023-03-16T01:00:20.846Z,13.90
2023-03-16T01:02:48.687Z,13.30
2023-03-16T01:05:16.452Z,13.57
2023-03-16T01:07:45.323Z,13.43
2023-03-16T01:10:14.145Z,11.47
2023-03-16T01:12:45.499Z,13.10
2023-03-16T01:15:13.427Z,13.13
2023-03-16T01:17:41.957Z,13.60
2023-03-16T01:20:13.187Z,14.60
2023-03-16T01:22:42.244Z,11.90
2023-03-16T01:25:12.461Z,14.97
2023-03-16T01:27:40.149Z,13.13
2023-03-16T01:30:12.431Z,14.10
2023-03-16T01:32:40.505Z,13.20
2023-03-16T01:35:09.248Z,13.60
2023-03-16T01:37:37.276Z,14.33
2023-03-16T01:40:06.987Z,13.33
2023-03-16T01:42:45.549Z,14.77
2023-03-16T01:45:46.578Z,13.00
2023-03-16T01:48:15.766Z,13.27
2023-03-16T01:50:43.580Z,15.40
2023-03-16T01:53:11.687Z,13.43
2023-03-16T01:55:39.609Z,14.93
2023-03-16T01:58:07.369Z,15.03
2023-03-16T02:00:35.157Z,14.63
2023-03-16T02:03:08.873Z,17.30
2023-03-16T02:05:45.592Z,14.87
2023-03-16T02:08:13.430Z,13.80
2023-03-16T02:10:42.020Z,14.17
2023-03-16T02:13:09.826Z,17.07
2023-03-16T02:15:37.695Z,16.27
2023-03-16T02:18:07.754Z,16.90
2023-03-16T02:20:43.554Z,14.83
2023-03-16T02:23:18.400Z,16.97
2023-03-16T02:25:54.139Z,14.20
2023-03-16T02:28:29.173Z,16.33
2023-03-16T02:30:59.107Z,14.80
2023-03-16T02:33:27.406Z,14.97
2023-03-16T02:35:55.221Z,13.00
2023-03-16T02:38:23.063Z,15.00
2023-03-16T02:40:58.782Z,15.80
2023-03-16T02:43:29.998Z,14.93
2023-03-16T02:46:03.275Z,17.20
2023-03-16T02:48:34.287Z,12.40
2023-03-16T02:51:01.922Z,15.27
2023-03-16T02:53:29.583Z,15.53
2023-03-16T02:55:57.324Z,14.50
2023-03-16T02:58:25.031Z,15.57
2023-03-16T03:00:53.204Z,13.77
2023-03-16T03:03:22.615Z,14.30
2023-03-16T03:05:50.698Z,11.93
2023-03-16T03:08:20.318Z,15.13
2023-03-16T03:10:47.950Z,13.77
2023-03-16T03:13:15.645Z,17.17
2023-03-16T03:15:43.396Z,15.17
2023-03-16T03:18:11.087Z,17.63
2023-03-16T03:20:40.124Z,11.93
2023-03-16T03:23:07.798Z,15.93
2023-03-16T03:25:35.467Z,17.23
2023-03-16T03:28:05.437Z,13.53
2023-03-16T03:30:33.544Z,12.70
2023-03-16T03:33:01.558Z,14.83
2023-03-16T03:35:29.417Z,16.77
2023-03-16T03:37:58.442Z,11.47
2023-03-16T03:40:26.484Z,15.47
2023-03-16T03:42:54.260Z,14.87
2023-03-16T03:45:21.907Z,14.87
2023-03-16T03:47:49.650Z,13.27
2023-03-16T03:50:17.994Z,13.23
2023-03-16T03:52:45.830Z,16.70
2023-03-16T03:55:14.978Z,16.03
2023-03-16T03:57:42.584Z,16.23
2023-03-16T04:00:11.733Z,17.13
2023-03-16T04:02:39.746Z,14.93
2023-03-16T04:05:08.621Z,16.80
2023-03-16T04:07:36.346Z,15.53
2023-03-16T04:10:04.321Z,14.20
2023-03-16T04:12:33.379Z,13.83
2023-03-16T04:15:01.173Z,18.53
2023-03-16T04:17:28.857Z,15.20
2023-03-16T04:19:56.491Z,16.53
2023-03-16T04:22:24.209Z,19.67
2023-03-16T04:24:54.630Z,16.03
2023-03-16T04:27:22.267Z,13.63
2023-03-16T04:29:55.749Z,14.60
2023-03-16T04:32:26.336Z,14.67
2023-03-16T04:34:55.933Z,19.10
2023-03-16T04:37:23.755Z,13.40
2023-03-16T04:39:51.539Z,17.13
2023-03-16T04:42:19.607Z,19.27
2023-03-16T04:44:48.073Z,18.33
2023-03-16T04:47:17.997Z,16.97
2023-03-16T04:49:46.766Z,17.17
2023-03-16T04:52:14.530Z,13.40
2023-03-16T04:54:42.254Z,18.17
2023-03-16T04:57:09.979Z,17.97
2023-03-16T04:59:37.651Z,14.93
2023-03-16T05:02:05.371Z,19.37
2023-03-16T05:04:34.562Z,14.93
2023-03-16T05:07:02.228Z,23.77
2023-03-16T05:09:30.049Z,16.67
2023-03-16T05:11:57.821Z,15.10
2023-03-16T05:14:25.556Z,13.60
2023-03-16T05:16:53.619Z,16.10
2023-03-16T05:19:21.350Z,16.17
2023-03-16T05:21:50.482Z,16.57
2023-03-16T05:24:18.181Z,16.50
2023-03-16T05:26:46.014Z,21.63
2023-03-16T05:29:13.586Z,17.10
2023-03-16T05:31:41.320Z,14.73
2023-03-16T05:34:09.221Z,16.30
2023-03-16T05:36:37.008Z,21.50
2023-03-16T05:39:08.353Z,15.27
2023-03-16T05:41:36.283Z,13.97
2023-03-16T05:44:05.046Z,23.00
2023-03-16T05:46:33.341Z,15.77
2023-03-16T05:49:01.212Z,18.33
2023-03-16T05:51:29.009Z,18.37
2023-03-16T05:53:57.554Z,15.70
2023-03-16T05:56:27.752Z,17.13
2023-03-16T05:58:56.810Z,15.47
2023-03-16T06:01:25.250Z,18.23
2023-03-16T06:03:53.707Z,17.27
2023-03-16T06:06:23.452Z,21.40
2023-03-16T06:08:51.141Z,19.07
2023-03-16T06:11:18.823Z,15.57
2023-03-16T06:13:47.819Z,17.83
2023-03-16T06:16:16.882Z,16.33
2023-03-16T06:18:44.703Z,14.27
2023-03-16T06:21:12.375Z,18.97
2023-03-16T06:23:40.039Z,20.87
2023-03-16T06:26:07.844Z,18.93
2023-03-16T06:28:35.498Z,22.00
2023-03-16T06:31:04.609Z,19.20
2023-03-16T06:33:32.288Z,18.53
2023-03-16T06:36:00.068Z,22.00
2023-03-16T06:38:28.086Z,19.23
2023-03-16T06:40:55.957Z,17.57
2023-03-16T06:43:23.763Z,17.27
2023-03-16T06:45:51.553Z,23.13
2023-03-16T06:48:20.666Z,16.30
2023-03-16T06:50:49.024Z,16.87
2023-03-16T06:53:16.824Z,23.77
2023-03-16T06:55:44.932Z,16.13
2023-03-16T06:58:12.978Z,16.30
2023-03-16T07:00:40.797Z,15.43
2023-03-16T07:03:08.606Z,21.23
2023-03-16T07:05:38.096Z,19.13
2023-03-16T07:08:06.130Z,21.90
2023-03-16T07:10:34.432Z,20.27
2023-03-16T07:13:02.287Z,23.83
2023-03-16T07:15:30.007Z,23.17
2023-03-16T07:17:58.092Z,20.73
2023-03-16T07:20:27.376Z,23.13
2023-03-16T07:22:58.389Z,18.27
2023-03-16T07:25:26.428Z,20.30
2023-03-16T07:27:54.149Z,24.23
2023-03-16T07:30:22.007Z,22.97
2023-03-16T07:32:49.956Z,20.27
2023-03-16T07:35:18.419Z,25.50
2023-03-16T07:37:47.317Z,22.07
2023-03-16T07:40:19.828Z,21.90
2023-03-16T07:42:47.995Z,24.37
2023-03-16T07:45:18.951Z,24.47
2023-03-16T07:47:47.926Z,23.83
2023-03-16T07:50:16.984Z,25.20
2023-03-16T07:52:46.176Z,22.00
2023-03-16T07:55:16.745Z,25.20
2023-03-16T07:57:47.931Z,24.20
2023-03-16T08:00:17.423Z,24.17
2023-03-16T08:02:45.446Z,23.93
2023-03-16T08:05:16.114Z,23.30
2023-03-16T08:07:43.942Z,22.77
2023-03-16T08:10:12.628Z,21.40
2023-03-16T08:12:43.378Z,21.23
2023-03-16T08:15:12.704Z,20.70
2023-03-16T08:17:41.778Z,19.00
2023-03-16T08:20:14.267Z,23.60
2023-03-16T08:22:46.799Z,18.80
2023-03-16T08:25:18.186Z,22.67
2023-03-16T08:27:48.711Z,20.83
2023-03-16T08:30:17.912Z,21.57
2023-03-16T08:32:45.741Z,23.93
2023-03-16T08:35:16.563Z,21.10
2023-03-16T08:37:46.312Z,18.77
2023-03-16T08:40:16.339Z,19.93
2023-03-16T08:42:45.069Z,18.30
2023-03-16T08:45:14.860Z,20.80
2023-03-16T08:47:43.034Z,21.73
2023-03-16T08:50:12.983Z,21.80
2023-03-16T08:52:42.830Z,17.77
2023-03-16T08:55:11.746Z,18.37
2023-03-16T08:57:39.968Z,16.40
2023-03-16T09:00:13.510Z,20.00
2023-03-16T09:02:43.274Z,17.13
2023-03-16T09:05:12.586Z,18.83
2023-03-16T09:07:40.641Z,17.47
2023-03-16T09:10:12.800Z,16.90
2023-03-16T09:12:40.968Z,15.80
2023-03-16T09:15:13.963Z,13.93
2023-03-16T09:17:45.211Z,17.03
2023-03-16T09:20:22.496Z,17.37
2023-03-16T09:22:54.611Z,16.10
2023-03-16T09:25:22.448Z,16.17
2023-03-16T09:27:50.970Z,15.52
2023-03-16T09:30:20.935Z,16.63
2023-03-16T09:32:50.960Z,15.15
2023-03-16T09:35:19.520Z,17.30
2023-03-16T09:38:04.828Z,15.13
2023-03-16T09:40:34.334Z,15.73
2023-03-16T09:43:17.416Z,13.67
2023-03-16T09:45:55.253Z,17.57
2023-03-16T09:48:26.036Z,14.97
2023-03-16T09:50:56.013Z,13.33
2023-03-16T09:53:28.854Z,13.33
2023-03-16T09:56:01.891Z,15.40
2023-03-16T09:58:47.495Z,15.02
2023-03-16T10:02:10.459Z,11.57
2023-03-16T10:05:01.630Z,14.70
2023-03-16T10:07:44.497Z,11.98
2023-03-16T10:13:21.202Z,10.00
2023-03-16T10:15:59.810Z,12.23
2023-03-16T10:18:33.100Z,9.43
2023-03-16T10:21:04.276Z,7.32
2023-03-16T10:23:35.507Z,9.77
2023-03-16T10:26:07.462Z,7.95
2023-03-16T10:28:35.275Z,9.80
2023-03-16T10:31:04.727Z,7.47
2023-03-16T10:33:34.280Z,13.38
2023-03-16T10:36:11.475Z,11.52
2023-03-16T10:38:46.688Z,7.57
2023-03-16T10:41:25.514Z,9.30
2023-03-16T10:43:57.451Z,7.55
2023-03-16T10:46:27.841Z,7.40
2023-03-16T10:49:00.156Z,12.95
2023-03-16T10:51:31.653Z,8.52
2023-03-16T10:54:10.909Z,7.63
2023-03-16T10:56:38.677Z,8.45
2023-03-16T10:59:17.756Z,11.63
2023-03-16T11:01:47.384Z,8.82
2023-03-16T11:04:18.152Z,9.00
2023-03-16T11:06:55.604Z,6.28
2023-03-16T11:09:27.830Z,6.97
2023-03-16T11:11:55.491Z,7.70
2023-03-16T11:14:28.411Z,8.53
2023-03-16T11:17:04.401Z,13.13
2023-03-16T11:19:35.767Z,8.73
2023-03-16T11:22:11.886Z,7.67
2023-03-16T11:24:48.090Z,8.97
2023-03-16T11:27:23.946Z,8.43
2023-03-16T11:30:05.412Z,11.83
2023-03-16T11:32:37.087Z,9.50
2023-03-16T11:35:14.171Z,10.80
2023-03-16T11:37:55.259Z,13.03
2023-03-16T11:40:38.477Z,10.77
2023-03-16T11:43:20.880Z,11.83
2023-03-16T11:45:58.207Z,9.13
2023-03-16T11:48:36.860Z,9.17
2023-03-16T11:51:09.560Z,11.90
2023-03-16T11:53:52.619Z,12.07
2023-03-16T11:56:30.106Z,9.83
2023-03-16T11:59:30.303Z,9.43
2023-03-16T12:02:21.984Z,10.03
2023-03-16T12:04:59.680Z,9.50
2023-03-16T12:07:44.454Z,10.33
2023-03-16T12:10:26.097Z,8.33
2023-03-16T12:13:33.174Z,11.23
2023-03-16T12:16:05.674Z,10.40
2023-03-16T12:18:45.286Z,8.77
2023-03-16T12:21:17.474Z,8.30
2023-03-16T12:23:52.592Z,9.83
2023-03-16T12:26:29.195Z,8.30
2023-03-16T12:29:00.191Z,7.60
2023-03-16T12:31:38.652Z,11.10
2023-03-16T12:34:14.575Z,7.23
2023-03-16T12:37:12.942Z,7.37
2023-03-16T12:39:55.487Z,8.07
2023-03-16T12:42:50.552Z,9.63
2023-03-16T12:45:30.136Z,8.23
2023-03-16T12:48:06.271Z,11.53
2023-03-16T12:50:34.341Z,12.63
2023-03-16T12:53:02.052Z,12.00
2023-03-16T12:55:44.964Z,6.93
2023-03-16T12:58:14.027Z,10.50
2023-03-16T13:00:42.883Z,7.53
2023-03-16T13:03:15.990Z,8.80
2023-03-16T13:05:47.589Z,6.95
2023-03-16T13:08:22.806Z,9.03
2023-03-16T13:11:05.047Z,7.20
2023-03-16T13:13:35.682Z,10.97
2023-03-16T13:16:06.975Z,7.37
2023-03-16T13:18:38.052Z,9.67
2023-03-16T13:21:17.053Z,7.43
2023-03-16T13:23:58.803Z,8.97
2023-03-16T13:26:40.221Z,8.07
2023-03-16T13:29:23.077Z,6.97
2023-03-16T13:31:51.901Z,11.70
2023-03-16T13:34:24.923Z,7.33
2023-03-16T13:36:57.306Z,8.00
2023-03-16T13:39:28.376Z,8.37
2023-03-16T13:42:01.742Z,8.20
2023-03-16T13:44:31.707Z,8.27
2023-03-16T13:47:05.036Z,9.70
2023-03-16T13:49:32.960Z,10.93
2023-03-16T13:52:03.486Z,9.20
2023-03-16T13:54:31.824Z,6.93
2023-03-16T13:57:02.964Z,8.23
2023-03-16T13:59:32.180Z,9.97
2023-03-16T14:02:01.805Z,12.83
2023-03-16T14:04:32.814Z,7.40
2023-03-16T14:07:01.973Z,8.97
2023-03-16T14:09:31.953Z,7.67
2023-03-16T14:12:00.006Z,9.10
2023-03-16T14:14:30.746Z,11.00
2023-03-16T14:17:05.455Z,12.17
2023-03-16T14:19:42.318Z,7.93
2023-03-16T14:22:16.358Z,10.33
2023-03-16T14:24:46.253Z,8.77
2023-03-16T14:27:21.889Z,8.03
2023-03-16T14:29:55.441Z,7.53
2023-03-16T14:32:28.547Z,7.43
2023-03-16T14:35:12.913Z,10.17
2023-03-16T14:37:41.844Z,9.37
2023-03-16T14:40:23.552Z,10.47
2023-03-16T14:42:52.130Z,5.73
2023-03-16T14:45:21.354Z,7.13
2023-03-16T14:47:53.700Z,7.37
2023-03-16T14:50:26.207Z,7.47
2023-03-16T14:52:57.404Z,5.57
2023-03-16T14:55:25.752Z,5.50
2023-03-16T14:57:53.995Z,8.80
2023-03-16T15:00:22.860Z,7.27
2023-03-16T15:03:03.035Z,7.57
2023-03-16T15:05:36.530Z,8.57
2023-03-16T15:08:06.484Z,9.57
2023-03-16T15:10:36.078Z,11.23
2023-03-16T15:13:13.260Z,8.53
2023-03-16T15:15:42.468Z,5.30
2023-03-16T15:18:12.034Z,6.13
2023-03-16T15:20:43.712Z,11.67
2023-03-16T15:23:15.838Z,5.70
2023-03-16T15:25:45.096Z,7.67
2023-03-16T15:28:15.996Z,6.87
2023-03-16T15:30:44.644Z,7.27
2023-03-16T15:33:14.125Z,4.90
2023-03-16T15:35:42.914Z,7.40
2023-03-16T15:38:15.684Z,6.57
2023-03-16T15:40:45.666Z,6.07
2023-03-16T15:43:14.301Z,7.10
2023-03-16T15:45:43.504Z,8.03
2023-03-16T15:48:11.716Z,6.73
2023-03-16T15:50:43.121Z,4.43
2023-03-16T15:53:29.617Z,5.97
2023-03-16T15:56:02.885Z,6.90
2023-03-16T15:58:32.574Z,4.50
2023-03-16T16:01:02.685Z,5.60
2023-03-16T16:03:30.950Z,4.90
2023-03-16T16:06:00.587Z,6.50
2023-03-16T16:08:28.252Z,5.63
2023-03-16T16:10:57.310Z,6.00
2023-03-16T16:13:43.492Z,4.93
2023-03-16T16:16:14.444Z,4.37
2023-03-16T16:18:42.732Z,6.03
2023-03-16T16:21:17.158Z,4.27
2023-03-16T16:23:45.026Z,5.23
2023-03-16T16:26:27.866Z,4.10
2023-03-16T16:28:59.652Z,7.30
2023-03-16T16:31:30.198Z,4.20
2023-03-16T16:33:59.001Z,2.83
2023-03-16T16:36:32.365Z,4.57
2023-03-16T16:39:00.470Z,4.90
2023-03-16T16:41:30.945Z,4.63
2023-03-16T16:44:05.087Z,4.20
2023-03-16T16:46:36.989Z,7.27
2023-03-16T16:49:09.059Z,3.80
2023-03-16T16:51:38.280Z,5.67
2023-03-16T16:54:16.435Z,3.30
2023-03-16T16:56:45.303Z,3.20
2023-03-16T16:59:18.174Z,3.83
2023-03-16T17:01:46.540Z,14.43
2023-03-16T17:04:17.367Z,3.63
2023-03-16T17:06:48.124Z,5.47
2023-03-16T17:09:16.207Z,4.83
2023-03-16T17:11:45.998Z,7.37
2023-03-16T17:14:18.684Z,5.67
2023-03-16T17:16:48.529Z,4.87
2023-03-16T17:19:21.787Z,8.43
2023-03-16T17:21:51.372Z,4.90
2023-03-16T17:24:19.344Z,9.03
2023-03-16T17:26:49.376Z,4.67
2023-03-16T17:29:22.553Z,4.63
2023-03-16T17:31:51.367Z,3.87
2023-03-16T17:34:21.383Z,3.83
2023-03-16T17:36:51.194Z,4.83
2023-03-16T17:39:21.099Z,8.17
2023-03-16T17:41:50.204Z,7.37
2023-03-16T17:44:20.218Z,4.77
2023-03-16T17:46:49.183Z,4.90
2023-03-16T17:49:19.964Z,3.53
2023-03-16T17:51:48.245Z,10.50
2023-03-16T17:54:17.531Z,4.83
2023-03-16T17:56:48.060Z,5.47
2023-03-16T17:59:19.072Z,7.47
2023-03-16T18:01:47.606Z,7.00
2023-03-16T18:04:19.760Z,7.97
2023-03-16T18:06:48.134Z,7.43
2023-03-16T18:09:18.763Z,8.87
2023-03-16T18:11:49.981Z,6.13
2023-03-16T18:14:25.478Z,7.40
2023-03-16T18:16:54.489Z,7.53
2023-03-16T18:19:25.429Z,5.77
2023-03-16T18:21:53.684Z,6.87
2023-03-16T18:24:26.932Z,7.13
2023-03-16T18:26:55.212Z,7.07
2023-03-16T18:29:24.583Z,6.53
2023-03-16T18:31:56.930Z,6.33
2023-03-16T18:34:27.413Z,6.47
2023-03-16T18:37:00.027Z,8.63
2023-03-16T18:39:29.330Z,11.90
2023-03-16T18:41:57.199Z,10.50
2023-03-16T18:44:26.874Z,8.43
2023-03-16T18:47:02.062Z,9.83
2023-03-16T18:49:34.001Z,8.80
2023-03-16T18:52:01.918Z,15.20
2023-03-16T18:54:35.190Z,11.43
2023-03-16T18:57:04.572Z,9.50
2023-03-16T18:59:32.713Z,14.27
2023-03-16T19:02:01.117Z,16.23
2023-03-16T19:04:32.677Z,13.50
2023-03-16T19:07:00.799Z,14.97
2023-03-16T19:09:33.203Z,14.83
2023-03-16T19:12:03.097Z,14.77
2023-03-16T19:14:33.400Z,19.17
2023-03-16T19:17:01.194Z,15.53
2023-03-16T19:19:28.986Z,17.70
2023-03-16T19:21:59.433Z,16.70
2023-03-16T19:24:29.639Z,17.43
2023-03-16T19:26:59.228Z,19.57
2023-03-16T19:29:32.265Z,17.37
2023-03-16T19:32:00.737Z,18.00
2023-03-16T19:34:29.079Z,15.67
2023-03-16T19:36:56.955Z,14.47
2023-03-16T19:39:25.582Z,14.40
2023-03-16T19:41:59.027Z,15.67
2023-03-16T19:44:29.200Z,17.83
2023-03-16T19:46:59.324Z,18.60
2023-03-16T19:49:29.235Z,14.23
2023-03-16T19:51:57.842Z,15.43
2023-03-16T19:54:27.612Z,17.57
2023-03-16T19:56:59.569Z,13.00
2023-03-16T19:59:32.361Z,13.13
2023-03-16T20:02:00.304Z,12.33
2023-03-16T20:04:28.679Z,11.57
2023-03-16T20:06:56.880Z,17.93
2023-03-16T20:09:24.897Z,13.13
2023-03-16T20:11:52.696Z,13.73
2023-03-16T20:14:27.831Z,18.17
2023-03-16T20:16:55.974Z,19.27
2023-03-16T20:19:24.536Z,15.00
2023-03-16T20:21:52.366Z,20.87
2023-03-16T20:24:22.202Z,18.03
2023-03-16T20:26:52.332Z,16.73
2023-03-16T20:29:27.924Z,28.07
2023-03-16T20:31:56.147Z,31.60
2023-03-16T20:34:25.859Z,40.33
2023-03-16T20:36:53.692Z,38.97
2023-03-16T20:39:21.704Z,42.23
2023-03-16T20:41:50.483Z,50.37
2023-03-16T20:44:23.589Z,61.37
2023-03-16T20:46:51.256Z,59.73
2023-03-16T20:49:31.049Z,49.43
2023-03-16T20:51:59.273Z,54.30
2023-03-16T20:54:27.222Z,67.10
2023-03-16T20:56:55.141Z,60.00
2023-03-16T20:59:27.418Z,47.97
2023-03-16T21:01:55.717Z,32.00
2023-03-16T21:04:27.347Z,45.97
2023-03-16T21:06:57.042Z,36.73
2023-03-16T21:09:24.897Z,28.07
2023-03-16T21:11:53.910Z,30.20
2023-03-16T21:14:24.918Z,33.97
2023-03-16T21:16:54.183Z,25.80
2023-03-16T21:19:24.220Z,28.70
2023-03-16T21:21:52.305Z,23.97
2023-03-16T21:24:20.028Z,25.20
2023-03-16T21:26:48.415Z,24.97
2023-03-16T21:29:21.302Z,28.53
2023-03-16T21:31:50.546Z,33.80
2023-03-16T21:34:26.173Z,25.53
2023-03-16T21:36:53.942Z,26.90
2023-03-16T21:39:25.075Z,30.90
2023-03-16T21:41:54.455Z,25.97
2023-03-16T21:44:22.778Z,29.57
2023-03-16T21:46:51.907Z,32.67
2023-03-16T21:49:19.814Z,30.10
2023-03-16T21:51:47.738Z,28.07
2023-03-16T21:54:16.391Z,31.40
2023-03-16T21:56:44.456Z,27.97
2023-03-16T21:59:13.026Z,26.33
2023-03-16T22:01:58.292Z,25.17
2023-03-16T22:04:29.949Z,24.20
2023-03-16T22:06:57.668Z,28.00
2023-03-16T22:09:30.020Z,21.57
2023-03-16T22:11:58.165Z,21.13
2023-03-16T22:14:27.148Z,24.83
2023-03-16T22:16:55.533Z,21.20
2023-03-16T22:19:23.370Z,21.37
2023-03-16T22:21:53.056Z,20.57
2023-03-16T22:24:23.762Z,21.63
2023-03-16T22:26:52.143Z,21.77
2023-03-16T22:29:25.240Z,21.30
2023-03-16T22:31:55.766Z,19.17
2023-03-16T22:34:30.645Z,21.27
2023-03-16T22:37:01.644Z,21.07
2023-03-16T22:39:32.772Z,17.40
2023-03-16T22:42:01.150Z,18.10
2023-03-16T22:44:29.051Z,17.30
2023-03-16T22:46:57.010Z,17.73
2023-03-16T22:49:28.478Z,19.43
2023-03-16T22:51:59.341Z,19.30
2023-03-16T22:54:29.569Z,15.83
2023-03-16T22:56:57.837Z,15.93
2023-03-16T22:59:28.342Z,19.23
2023-03-16T23:01:56.557Z,17.93
2023-03-16T23:04:29.886Z,16.07
2023-03-16T23:06:59.897Z,20.40
2023-03-16T23:09:27.624Z,15.87
2023-03-16T23:11:57.576Z,15.53
2023-03-16T23:14:28.416Z,15.37
2023-03-16T23:16:56.702Z,15.43
2023-03-16T23:19:27.166Z,13.70
2023-03-16T23:21:57.418Z,11.83
2023-03-16T23:24:27.063Z,15.17
2023-03-16T23:26:55.991Z,14.30
2023-03-16T23:29:24.642Z,12.93
2023-03-16T23:31:53.593Z,12.83
2023-03-16T23:34:22.985Z,15.60
2023-03-16T23:36:51.328Z,13.33
2023-03-16T23:39:19.493Z,14.93
2023-03-16T23:41:50.452Z,11.87
2023-03-16T23:44:20.248Z,10.17
2023-03-16T23:46:49.027Z,12.93
2023-03-16T23:49:21.580Z,10.90
2023-03-16T23:51:49.736Z,14.27
2023-03-16T23:54:20.894Z,10.73
2023-03-16T23:56:52.130Z,19.37
2023-03-16T23:59:20.910Z,16.50
